createdAt,value
2019-03-22T00:00:34.917Z,100.00
2019-03-22T00:05:40.995Z,100.00
2019-03-22T00:10:47.089Z,100.00
2019-03-22T00:15:53.361Z,100.00
2019-03-22T00:20:59.390Z,100.00
2019-03-22T00:26:05.295Z,100.00
2019-03-22T00:31:11.216Z,100.00
2019-03-22T00:36:17.304Z,100.00
2019-03-22T00:41:23.180Z,100.00
2019-03-22T00:46:29.088Z,99.92
2019-03-22T00:51:35.089Z,99.83
2019-03-22T00:56:41.281Z,99.90
2019-03-22T01:01:47.516Z,99.77
2019-03-22T01:06:53.441Z,99.79
2019-03-22T01:11:59.689Z,99.66
2019-03-22T01:17:05.665Z,99.06
2019-03-22T01:22:11.640Z,98.83
2019-03-22T01:27:17.494Z,97.97
2019-03-22T01:32:24.117Z,97.14
2019-03-22T01:37:30.060Z,96.44
2019-03-22T01:42:36.289Z,95.72
2019-03-22T01:47:42.455Z,94.43
2019-03-22T01:52:48.900Z,93.77
2019-03-22T01:57:54.910Z,93.63
2019-03-22T02:03:00.800Z,93.09
2019-03-22T02:08:06.749Z,92.69
2019-03-22T02:13:15.655Z,93.04
2019-03-22T02:18:21.564Z,93.45
2019-03-22T02:23:27.481Z,94.90
2019-03-22T02:28:33.366Z,96.40
2019-03-22T02:33:39.294Z,97.67
2019-03-22T02:38:45.258Z,98.68
2019-03-22T02:43:54.442Z,99.43
2019-03-22T02:48:58.867Z,99.94
2019-03-22T02:54:04.857Z,100.00
2019-03-22T02:59:10.730Z,100.00
2019-03-22T03:04:16.634Z,100.00
2019-03-22T03:09:22.553Z,100.00
2019-03-22T03:14:28.470Z,100.00
2019-03-22T03:19:34.335Z,100.00
2019-03-22T03:24:40.350Z,100.00
2019-03-22T03:29:46.505Z,100.00
2019-03-22T03:34:52.401Z,100.00
2019-03-22T03:39:58.421Z,100.00
2019-03-22T03:45:04.459Z,100.00
2019-03-22T03:50:10.649Z,100.00
2019-03-22T03:55:16.598Z,100.00
2019-03-22T04:00:22.617Z,100.00
2019-03-22T04:05:28.539Z,100.00
2019-03-22T04:10:34.583Z,100.00
2019-03-22T04:15:40.686Z,100.00
2019-03-22T04:20:46.775Z,100.00
2019-03-22T04:25:52.633Z,100.00
2019-03-22T04:30:58.522Z,100.00
2019-03-22T04:36:04.484Z,100.00
2019-03-22T04:41:10.391Z,100.00
2019-03-22T04:46:17.820Z,100.00
2019-03-22T04:51:24.920Z,100.00
2019-03-22T04:56:33.952Z,100.00
2019-03-22T05:01:41.800Z,100.00
2019-03-22T05:06:49.910Z,100.00
2019-03-22T05:11:57.665Z,100.00
2019-03-22T05:17:04.711Z,100.00
2019-03-22T05:22:13.840Z,100.00
2019-03-22T05:27:21.215Z,100.00
2019-03-22T05:32:27.166Z,100.00
2019-03-22T05:37:33.100Z,100.00
2019-03-22T05:42:39.070Z,100.00
2019-03-22T05:47:44.940Z,100.00
2019-03-22T05:52:52.763Z,100.00
2019-03-22T05:57:58.559Z,100.00
2019-03-22T06:03:04.441Z,100.00
2019-03-22T06:08:10.427Z,100.00
2019-03-22T06:13:16.593Z,100.00
2019-03-22T06:18:22.484Z,100.00
2019-03-22T06:23:28.411Z,100.00
2019-03-22T06:28:34.480Z,100.00
2019-03-22T06:33:40.485Z,100.00
2019-03-22T06:38:46.375Z,100.00
2019-03-22T06:43:52.434Z,100.00
2019-03-22T06:48:58.351Z,100.00
2019-03-22T06:54:04.366Z,100.00
2019-03-22T06:59:10.348Z,100.00
2019-03-22T07:04:16.310Z,100.00
2019-03-22T07:09:22.252Z,100.00
2019-03-22T07:14:28.249Z,100.00
2019-03-22T07:19:34.425Z,100.00
2019-03-22T07:24:40.375Z,100.00
2019-03-22T07:29:46.360Z,100.00
2019-03-22T07:34:52.305Z,100.00
2019-03-22T07:40:00.397Z,100.00
2019-03-22T07:45:06.678Z,99.61
2019-03-22T07:50:12.899Z,99.97
2019-03-22T07:55:18.806Z,100.00
2019-03-22T08:00:30.607Z,100.00
2019-03-22T08:05:32.470Z,99.98
2019-03-22T08:10:38.620Z,98.78
2019-03-22T08:15:44.601Z,98.31
2019-03-22T08:20:50.764Z,98.21
2019-03-22T08:25:58.909Z,96.89
2019-03-22T08:31:05.696Z,96.63
2019-03-22T08:36:14.797Z,96.65
2019-03-22T08:41:19.752Z,95.29
2019-03-22T08:46:26.022Z,93.35
2019-03-22T08:51:32.107Z,93.35
2019-03-22T08:56:38.113Z,92.67
2019-03-22T09:01:44.050Z,91.24
2019-03-22T09:06:50.150Z,90.23
2019-03-22T09:11:56.271Z,89.34
2019-03-22T09:17:02.185Z,89.11
2019-03-22T09:22:08.495Z,86.43
2019-03-22T09:27:14.545Z,84.50
2019-03-22T09:32:20.485Z,82.78
2019-03-22T09:37:26.453Z,78.76
2019-03-22T09:42:32.779Z,78.43
2019-03-22T09:47:38.760Z,79.21
2019-03-22T09:52:44.966Z,78.44
2019-03-22T09:57:51.014Z,79.82
2019-03-22T10:02:57.032Z,80.11
2019-03-22T10:08:03.508Z,79.38
2019-03-22T10:13:09.497Z,77.96
2019-03-22T10:18:15.524Z,78.29
2019-03-22T10:23:22.530Z,77.41
2019-03-22T10:28:28.568Z,73.05
2019-03-22T10:33:34.565Z,71.92
2019-03-22T10:38:40.644Z,74.77
2019-03-22T10:43:46.745Z,74.98
2019-03-22T10:48:52.659Z,76.76
2019-03-22T10:53:58.566Z,75.92
2019-03-22T10:59:04.810Z,75.57
2019-03-22T11:04:10.967Z,78.26
2019-03-22T11:09:17.090Z,82.02
2019-03-22T11:14:23.097Z,84.38
2019-03-22T11:19:29.370Z,86.05
2019-03-22T11:24:35.715Z,86.11
2019-03-22T11:29:41.651Z,85.00
2019-03-22T11:34:47.665Z,84.92
2019-03-22T11:39:54.048Z,83.81
2019-03-22T11:45:00.020Z,81.63
2019-03-22T11:50:09.666Z,79.85
2019-03-22T11:55:15.855Z,80.24
2019-03-22T12:00:22.885Z,82.39
2019-03-22T12:05:28.915Z,84.10
2019-03-22T12:10:35.153Z,85.78
2019-03-22T12:15:41.301Z,85.85
2019-03-22T12:20:47.606Z,85.45
2019-03-22T12:25:53.927Z,87.77
2019-03-22T12:30:59.930Z,83.83
2019-03-22T12:36:06.090Z,83.19
2019-03-22T12:41:12.046Z,80.02
2019-03-22T12:46:18.055Z,78.53
2019-03-22T12:51:24.436Z,80.68
2019-03-22T12:56:30.630Z,81.41
2019-03-22T13:01:37.781Z,79.22
2019-03-22T13:06:43.839Z,79.19
2019-03-22T13:11:51.740Z,75.08
2019-03-22T13:16:57.717Z,77.84
2019-03-22T13:22:03.932Z,78.36
2019-03-22T13:27:09.974Z,81.86
2019-03-22T13:32:15.960Z,82.57
2019-03-22T13:37:21.925Z,83.21
2019-03-22T13:42:27.961Z,80.64
2019-03-22T13:47:33.945Z,77.11
2019-03-22T13:52:40.420Z,77.17
2019-03-22T13:57:46.411Z,78.27
2019-03-22T14:03:02.115Z,75.45
2019-03-22T14:08:00.219Z,74.18
2019-03-22T14:13:07.864Z,73.78
2019-03-22T14:18:13.976Z,71.33
2019-03-22T14:23:20.377Z,73.69
2019-03-22T14:28:26.470Z,75.20
2019-03-22T14:33:32.449Z,78.69
2019-03-22T14:38:39.649Z,79.25
2019-03-22T14:43:45.673Z,81.82
2019-03-22T14:48:51.731Z,83.82
2019-03-22T14:54:00.606Z,84.91
2019-03-22T14:59:06.571Z,85.46
2019-03-22T15:04:12.778Z,86.00
2019-03-22T15:09:18.979Z,86.60
2019-03-22T15:14:37.296Z,85.30
2019-03-22T15:20:02.797Z,83.29
2019-03-22T15:25:28.602Z,81.41
2019-03-22T15:30:43.069Z,85.15
2019-03-22T15:35:59.108Z,85.38
2019-03-22T15:41:07.633Z,85.56
2019-03-22T15:46:13.710Z,84.65
2019-03-22T15:51:19.836Z,86.26
2019-03-22T15:56:25.737Z,84.67
2019-03-22T16:01:34.399Z,83.25
2019-03-22T16:06:40.483Z,84.92
2019-03-22T16:11:46.565Z,86.51
2019-03-22T16:16:54.321Z,87.33
2019-03-22T16:22:00.400Z,87.38
2019-03-22T16:27:06.650Z,87.23
2019-03-22T16:32:12.536Z,86.93
2019-03-22T16:37:18.496Z,88.28
2019-03-22T16:42:24.406Z,90.58
2019-03-22T16:47:30.625Z,91.74
2019-03-22T16:52:36.765Z,92.60
2019-03-22T16:57:43.646Z,93.03
2019-03-22T17:02:49.705Z,93.14
2019-03-22T17:07:55.861Z,93.41
2019-03-22T17:13:01.892Z,93.99
2019-03-22T17:18:08.201Z,94.40
2019-03-22T17:23:16.270Z,94.51
2019-03-22T17:28:24.077Z,94.97
2019-03-22T17:33:30.122Z,95.20
2019-03-22T17:38:36.611Z,95.37
2019-03-22T17:43:42.700Z,95.40
2019-03-22T17:48:48.792Z,95.39
2019-03-22T17:53:54.952Z,95.09
2019-03-22T17:59:00.899Z,94.82
2019-03-22T18:04:07.116Z,94.69
2019-03-22T18:09:13.132Z,94.25
2019-03-22T18:14:19.155Z,94.36
2019-03-22T18:19:25.780Z,94.18
2019-03-22T18:24:31.786Z,93.67
2019-03-22T18:29:38.853Z,93.32
2019-03-22T18:34:44.985Z,93.41
2019-03-22T18:39:51.361Z,93.16
2019-03-22T18:44:57.849Z,93.22
2019-03-22T18:50:06.003Z,92.97
2019-03-22T18:55:12.805Z,93.61
2019-03-22T19:00:19.136Z,93.65
2019-03-22T19:05:25.081Z,93.50
2019-03-22T19:10:31.133Z,93.11
2019-03-22T19:15:40.125Z,93.14
2019-03-22T19:20:48.146Z,92.91
2019-03-22T19:25:57.196Z,92.47
2019-03-22T19:31:03.686Z,92.20
2019-03-22T19:36:09.825Z,92.05
2019-03-22T19:41:16.070Z,91.66
2019-03-22T19:46:22.030Z,91.38
2019-03-22T19:51:27.980Z,92.61
2019-03-22T19:56:34.295Z,92.61
2019-03-22T20:01:40.281Z,92.67
2019-03-22T20:06:46.340Z,92.20
2019-03-22T20:11:52.410Z,91.98
2019-03-22T20:16:58.510Z,91.72
2019-03-22T20:22:04.557Z,92.06
2019-03-22T20:27:10.555Z,92.21
2019-03-22T20:32:16.946Z,92.48
2019-03-22T20:37:22.953Z,92.43
2019-03-22T20:42:29.333Z,92.13
2019-03-22T20:47:35.609Z,92.50
2019-03-22T20:52:41.725Z,92.30
2019-03-22T20:57:47.760Z,92.44
2019-03-22T21:02:54.294Z,92.28
2019-03-22T21:08:00.370Z,92.98
2019-03-22T21:13:06.761Z,92.93
2019-03-22T21:18:13.101Z,93.57
2019-03-22T21:23:19.177Z,93.76
2019-03-22T21:28:26.085Z,94.08
2019-03-22T21:33:32.637Z,94.45
2019-03-22T21:38:38.957Z,94.77
2019-03-22T21:43:45.337Z,94.60
2019-03-22T21:48:51.518Z,94.58
2019-03-22T21:53:57.580Z,94.73
2019-03-22T21:59:03.657Z,95.10
2019-03-22T22:04:09.680Z,95.17
2019-03-22T22:09:15.762Z,95.05
2019-03-22T22:14:21.752Z,95.25
2019-03-22T22:19:27.836Z,95.35
2019-03-22T22:24:33.836Z,94.95
2019-03-22T22:29:39.767Z,95.23
2019-03-22T22:34:46.007Z,95.47
2019-03-22T22:39:52.025Z,95.61
2019-03-22T22:44:58.100Z,95.62
2019-03-22T22:50:04.326Z,95.78
2019-03-22T22:55:10.635Z,96.30
2019-03-22T23:00:17.573Z,96.30
2019-03-22T23:05:23.604Z,95.93
2019-03-22T23:10:29.711Z,95.91
2019-03-22T23:15:35.689Z,95.72
2019-03-22T23:20:42.113Z,95.51
2019-03-22T23:25:48.181Z,95.39
2019-03-22T23:30:54.714Z,95.22
2019-03-22T23:36:00.847Z,95.00
2019-03-22T23:41:07.096Z,94.61
2019-03-22T23:46:13.045Z,94.76
2019-03-22T23:51:19.330Z,95.23
2019-03-22T23:56:25.478Z,94.60
